Time;durP1;ratioP1;P1;durP2;ratioP2;P2;SDS_P1;SDS_P2;PMS_P1;PMS_P2;Temp;Humidity;BMP_temperature;BMP_pressure;BME280_temperature;BME280_humidity;BME280_pressure;Samples;Min_cycle;Max_cycle;Signal;HPM_P1;HPM_P2
2022/07/09 00:01:32;;;;;;;0.70;0.50;;;;;;;31.35;31.89;101199.75;4931270;29;20493;-72
2022/07/09 00:04:01;;;;;;;1.55;0.50;;;;;;;31.35;31.75;101197.09;4930058;29;20076;-73
2022/07/09 00:06:31;;;;;;;2.47;0.43;;;;;;;31.37;30.60;101189.84;4935825;29;20052;-72
2022/07/09 00:09:00;;;;;;;3.70;0.50;;;;;;;31.46;31.11;101197.44;4930307;29;20138;-73
2022/07/09 00:11:28;;;;;;;2.42;0.60;;;;;;;31.55;29.86;101187.22;4931310;29;20094;-76
2022/07/09 00:13:57;;;;;;;0.60;0.50;;;;;;;31.64;30.75;101186.75;4923041;29;20118;-71
2022/07/09 00:16:25;;;;;;;1.17;0.60;;;;;;;31.71;29.78;101185.47;4931662;29;20103;-73
2022/07/09 00:18:55;;;;;;;1.00;0.40;;;;;;;31.76;29.89;101175.41;4934689;29;20063;-72
2022/07/09 00:21:31;;;;;;;1.00;0.52;;;;;;;31.77;30.06;101184.28;4923730;29;20051;-75
2022/07/09 00:24:00;;;;;;;0.68;0.47;;;;;;;31.79;29.37;101179.72;4936634;29;20509;-73
2022/07/09 00:26:28;;;;;;;0.50;0.40;;;;;;;31.67;29.90;101183.91;4928147;29;20048;-73
2022/07/09 00:28:57;;;;;;;0.63;0.60;;;;;;;31.51;30.68;101181.16;4925878;29;20056;-73
2022/07/09 00:31:25;;;;;;;3.92;0.70;;;;;;;31.49;31.20;101183.03;4927882;29;20622;-75
2022/07/09 00:33:55;;;;;;;1.77;0.50;;;;;;;31.49;31.83;101178.56;4932249;29;20530;-73
2022/07/09 00:36:24;;;;;;;1.20;0.60;;;;;;;31.54;30.80;101181.00;4932937;29;20044;-72
2022/07/09 00:38:52;;;;;;;1.58;0.50;;;;;;;31.59;31.23;101186.09;4929447;29;20553;-73
2022/07/09 00:41:21;;;;;;;0.70;0.60;;;;;;;31.64;30.30;101186.75;4928921;29;20506;-72
2022/07/09 00:43:50;;;;;;;1.55;0.68;;;;;;;31.66;30.29;101180.38;4923667;29;20102;-71
2022/07/09 00:46:19;;;;;;;0.60;0.52;;;;;;;31.68;30.38;101174.94;4924508;29;20048;-74
2022/07/09 00:48:47;;;;;;;2.72;0.63;;;;;;;31.67;29.96;101176.75;4924735;29;20047;-74
2022/07/09 00:51:19;;;;;;;1.08;0.63;;;;;;;31.63;30.42;101168.97;4923855;29;20055;-76
2022/07/09 00:53:50;;;;;;;3.22;0.68;;;;;;;31.40;30.77;101176.31;4932631;28;20055;-77
2022/07/09 00:56:19;;;;;;;0.93;0.70;;;;;;;31.22;30.93;101174.59;4927768;29;20055;-72
2022/07/09 00:58:48;;;;;;;2.13;0.63;;;;;;;31.03;31.37;101172.84;4933210;29;20082;-71
2022/07/09 01:01:17;;;;;;;1.27;0.77;;;;;;;30.89;31.31;101170.84;4930905;29;20483;-71
2022/07/09 01:03:45;;;;;;;1.42;0.60;;;;;;;30.79;32.50;101168.69;4930357;29;20531;-71
2022/07/09 01:06:15;;;;;;;1.58;0.50;;;;;;;30.66;31.15;101163.91;4928903;29;20494;-74
2022/07/09 01:08:45;;;;;;;2.08;0.80;;;;;;;30.65;32.50;101159.53;4932102;29;20100;-73
2022/07/09 01:11:14;;;;;;;1.85;0.52;;;;;;;30.61;33.69;101165.94;4935392;29;20120;-71
2022/07/09 01:13:43;;;;;;;0.90;0.50;;;;;;;30.51;33.33;101166.44;4932825;29;20047;-72
2022/07/09 01:16:15;;;;;;;9.93;1.05;;;;;;;30.41;33.12;101160.69;4932205;29;20047;-73
2022/07/09 01:18:46;;;;;;;0.90;0.65;;;;;;;30.32;32.94;101161.13;4932131;29;20047;-70
2022/07/09 01:21:16;;;;;;;0.55;0.55;;;;;;;30.26;33.28;101162.22;4929141;29;20233;-72
2022/07/09 01:23:45;;;;;;;0.65;0.60;;;;;;;30.27;35.10;101164.00;4930704;29;20056;-74
2022/07/09 01:26:13;;;;;;;0.40;0.40;;;;;;;30.26;33.81;101163.16;4938295;29;20040;-73
2022/07/09 01:28:42;;;;;;;1.00;0.60;;;;;;;30.14;33.76;101157.47;4931213;29;20103;-73
2022/07/09 01:31:10;;;;;;;0.75;0.60;;;;;;;30.01;34.24;101159.84;4933070;29;20047;-72
2022/07/09 01:33:39;;;;;;;1.15;0.75;;;;;;;29.85;33.39;101152.53;4932223;29;20051;-74
2022/07/09 01:36:09;;;;;;;1.55;1.00;;;;;;;29.73;33.63;101153.06;4942069;29;20044;-74
2022/07/09 01:38:39;;;;;;;1.85;0.70;;;;;;;29.60;33.70;101154.53;4932469;29;20117;-74
2022/07/09 01:41:07;;;;;;;3.60;0.80;;;;;;;29.48;34.45;101157.69;4931487;29;20043;-74
2022/07/09 01:43:36;;;;;;;1.90;0.80;;;;;;;29.38;34.45;101150.09;4931709;29;20106;-73
2022/07/09 01:46:05;;;;;;;2.03;0.70;;;;;;;29.35;35.43;101152.03;4931229;29;20095;-73
2022/07/09 01:48:35;;;;;;;1.00;0.70;;;;;;;29.28;36.43;101161.25;4932610;29;20116;-72
2022/07/09 01:51:04;;;;;;;1.35;0.70;;;;;;;29.22;35.46;101165.00;4933057;29;20047;-73
2022/07/09 01:53:33;;;;;;;1.58;0.73;;;;;;;29.18;36.19;101160.72;4935481;28;20102;-73
2022/07/09 01:56:08;;;;;;;1.95;0.93;;;;;;;29.12;37.31;101166.34;4931407;29;20055;-73
2022/07/09 01:58:37;;;;;;;0.80;0.70;;;;;;;29.03;37.41;101160.41;4931763;29;20127;-74
2022/07/09 02:01:06;;;;;;;0.55;0.43;;;;;;;28.95;36.13;101165.19;4927188;29;20059;-74
2022/07/09 02:03:34;;;;;;;0.80;0.55;;;;;;;28.88;37.29;101163.69;4933384;29;20493;-72
2022/07/09 02:06:03;;;;;;;0.80;0.70;;;;;;;28.76;39.97;101162.41;4929201;29;20095;-73
2022/07/09 02:08:31;;;;;;;1.35;0.55;;;;;;;28.66;40.26;101157.53;4929936;29;20557;-73
2022/07/09 02:11:00;;;;;;;2.58;0.70;;;;;;;28.55;39.76;101165.91;4925424;29;20056;-74
2022/07/09 02:13:30;;;;;;;0.60;0.50;;;;;;;28.44;38.99;101168.94;4934287;29;20095;-74
2022/07/09 02:16:00;;;;;;;2.60;0.60;;;;;;;28.36;39.46;101168.41;4929480;29;20579;-74
2022/07/09 02:18:29;;;;;;;2.83;0.57;;;;;;;28.24;39.75;101160.88;4928416;29;20150;-75
2022/07/09 02:20:57;;;;;;;0.77;0.55;;;;;;;28.19;39.13;101166.34;4926143;29;20056;-75
2022/07/09 02:23:26;;;;;;;1.95;0.80;;;;;;;28.09;40.38;101171.16;4923853;29;20117;-74
2022/07/09 02:25:54;;;;;;;2.47;0.80;;;;;;;28.00;42.08;101168.84;4923571;29;20549;-73
2022/07/09 02:28:23;;;;;;;2.05;0.70;;;;;;;27.89;40.24;101176.34;4924210;29;20051;-74
2022/07/09 02:30:53;;;;;;;2.67;1.13;;;;;;;27.76;40.96;101174.09;4921748;29;20490;-73
2022/07/09 02:33:22;;;;;;;0.70;0.60;;;;;;;27.67;41.53;101171.75;4920557;29;20088;-72
2022/07/09 02:35:50;;;;;;;1.58;0.65;;;;;;;27.58;41.75;101172.94;4930185;29;20813;-74
2022/07/09 02:38:21;;;;;;;1.55;0.90;;;;;;;27.51;41.88;101175.84;4926039;29;20415;-73
2022/07/09 02:40:49;;;;;;;1.35;0.60;;;;;;;27.43;41.86;101172.59;4924394;29;20059;-73
2022/07/09 02:43:18;;;;;;;2.88;0.77;;;;;;;27.34;42.05;101173.78;4925565;29;20047;-73
2022/07/09 02:45:46;;;;;;;0.90;0.60;;;;;;;27.26;42.69;101178.47;4916783;29;20168;-73
2022/07/09 02:48:16;;;;;;;3.13;0.80;;;;;;;27.16;43.12;101181.41;4919361;29;20123;-72
2022/07/09 02:50:45;;;;;;;0.80;0.52;;;;;;;27.09;42.37;101179.00;4933877;29;20103;-73
2022/07/09 02:53:13;;;;;;;1.67;0.70;;;;;;;27.07;42.80;101188.81;4924753;28;20056;-73
2022/07/09 02:55:42;;;;;;;0.65;0.52;;;;;;;27.02;43.50;101177.47;4934942;29;20068;-72
2022/07/09 02:58:10;;;;;;;0.73;0.65;;;;;;;26.99;42.97;101182.88;4926060;29;20062;-73
2022/07/09 03:00:39;;;;;;;3.47;0.80;;;;;;;26.93;43.84;101187.47;4927237;29;20553;-73
2022/07/09 03:03:08;;;;;;;3.50;0.85;;;;;;;26.86;43.22;101188.56;4926171;29;20048;-72
2022/07/09 03:05:38;;;;;;;1.63;0.70;;;;;;;26.77;45.47;101194.16;4929637;29;20491;-72
2022/07/09 03:08:08;;;;;;;1.40;0.68;;;;;;;26.69;43.06;101190.91;4933999;29;20051;-72
2022/07/09 03:10:37;;;;;;;0.80;0.63;;;;;;;26.59;42.48;101195.59;4928304;29;20044;-74
2022/07/09 03:13:05;;;;;;;1.30;0.70;;;;;;;26.51;42.98;101195.81;4933970;29;20295;-74
2022/07/09 03:15:33;;;;;;;1.38;0.70;;;;;;;26.46;44.37;101197.72;4934997;29;20066;-73
2022/07/09 03:18:02;;;;;;;1.38;0.68;;;;;;;26.39;45.04;101198.84;4933968;29;20502;-73
2022/07/09 03:20:31;;;;;;;0.98;0.70;;;;;;;26.33;44.12;101199.00;4935428;29;20052;-73
2022/07/09 03:23:01;;;;;;;2.35;0.80;;;;;;;26.31;44.07;101193.72;4931128;29;20048;-73
2022/07/09 03:25:30;;;;;;;0.75;0.60;;;;;;;26.28;44.87;101191.19;4932490;29;20134;-72
2022/07/09 03:27:58;;;;;;;2.72;0.88;;;;;;;26.25;44.69;101190.38;4933941;29;20047;-73
2022/07/09 03:30:27;;;;;;;2.10;0.77;;;;;;;26.22;45.20;101195.78;4933336;29;20608;-72
2022/07/09 03:32:55;;;;;;;1.00;0.85;;;;;;;26.16;45.19;101204.81;4926876;29;20056;-73
2022/07/09 03:35:24;;;;;;;2.97;0.73;;;;;;;26.10;44.89;101200.53;4932761;29;20047;-72
2022/07/09 03:37:53;;;;;;;0.90;0.77;;;;;;;26.06;45.40;101198.84;4926648;29;20054;-74
2022/07/09 03:40:23;;;;;;;1.67;0.60;;;;;;;26.00;45.13;101209.66;4932189;29;20550;-73
2022/07/09 03:42:52;;;;;;;2.42;1.25;;;;;;;25.94;46.07;101207.16;4927447;29;20071;-73
2022/07/09 03:45:20;;;;;;;3.70;0.80;;;;;;;25.87;45.63;101206.47;4932279;29;20040;-72
2022/07/09 03:47:50;;;;;;;4.13;0.70;;;;;;;25.82;45.68;101207.47;4925801;29;20047;-73
2022/07/09 03:50:18;;;;;;;0.95;0.60;;;;;;;25.76;46.04;101212.94;4930753;29;20091;-73
2022/07/09 03:52:47;;;;;;;1.60;0.93;;;;;;;25.67;46.16;101209.59;4932569;28;20051;-73
2022/07/09 03:55:16;;;;;;;1.95;0.75;;;;;;;25.56;46.97;101214.31;4929062;29;20132;-75
2022/07/09 03:57:46;;;;;;;1.60;0.70;;;;;;;25.45;46.54;101216.38;4933196;29;20127;-73
2022/07/09 04:00:15;;;;;;;2.97;0.60;;;;;;;25.39;46.55;101211.22;4931475;29;20050;-72
2022/07/09 04:02:44;;;;;;;1.15;0.60;;;;;;;25.32;46.56;101212.28;4930457;29;20478;-73
2022/07/09 04:05:12;;;;;;;0.70;0.65;;;;;;;25.22;47.65;101217.81;4932155;29;20074;-73
2022/07/09 04:07:41;;;;;;;0.70;0.60;;;;;;;25.14;47.55;101214.44;4932564;29;20123;-74
2022/07/09 04:10:10;;;;;;;0.65;0.50;;;;;;;25.06;47.39;101214.63;4932648;29;20110;-73
2022/07/09 04:12:39;;;;;;;0.60;0.60;;;;;;;24.98;48.16;101219.22;4938565;29;20139;-72
2022/07/09 04:15:10;;;;;;;1.73;0.88;;;;;;;24.89;48.96;101208.84;4934243;29;20071;-73
2022/07/09 04:17:39;;;;;;;2.13;0.85;;;;;;;24.80;49.64;101215.19;4931845;29;20056;-73
2022/07/09 04:20:09;;;;;;;1.80;0.70;;;;;;;24.77;49.38;101225.00;4934150;29;20083;-73
2022/07/09 04:22:37;;;;;;;1.00;0.55;;;;;;;24.71;49.54;101228.63;4941042;29;20497;-72
2022/07/09 04:25:06;;;;;;;0.75;0.52;;;;;;;24.67;49.39;101229.63;4925129;29;20047;-72
2022/07/09 04:27:35;;;;;;;1.33;0.50;;;;;;;24.59;49.00;101220.97;4920937;29;20150;-72
2022/07/09 04:30:05;;;;;;;1.13;0.73;;;;;;;24.50;50.16;101231.75;4925537;29;20058;-72
2022/07/09 04:32:35;;;;;;;1.08;0.70;;;;;;;24.42;50.27;101235.38;4923174;29;20514;-73
2022/07/09 04:35:03;;;;;;;0.70;0.55;;;;;;;24.35;50.08;101228.47;4927624;29;20044;-72
2022/07/09 04:37:32;;;;;;;0.75;0.50;;;;;;;24.28;49.94;101240.09;4932003;29;20486;-72
2022/07/09 04:40:00;;;;;;;0.60;0.45;;;;;;;24.21;50.45;101241.09;4933177;29;20498;-71
2022/07/09 04:42:29;;;;;;;1.77;0.60;;;;;;;24.13;50.04;101248.31;4932708;29;20047;-73
2022/07/09 04:44:57;;;;;;;2.45;0.68;;;;;;;24.07;50.58;101248.41;4911590;29;20108;-72
2022/07/09 04:47:26;;;;;;;2.15;0.70;;;;;;;23.99;50.34;101244.16;4927186;29;20048;-73
2022/07/09 04:49:56;;;;;;;1.00;0.50;;;;;;;23.95;52.74;101250.38;4918124;29;20047;-71
2022/07/09 04:52:26;;;;;;;1.48;0.70;;;;;;;23.93;52.14;101257.47;4928362;29;20418;-72
2022/07/09 04:54:56;;;;;;;0.90;0.60;;;;;;;23.89;51.77;101250.50;4925634;28;20055;-72
2022/07/09 04:57:24;;;;;;;1.00;0.60;;;;;;;23.85;51.42;101262.03;4932542;29;20050;-71
2022/07/09 04:59:53;;;;;;;1.98;0.68;;;;;;;23.80;51.29;101261.22;4926413;29;20525;-72
2022/07/09 05:02:21;;;;;;;0.52;0.50;;;;;;;23.74;51.68;101266.59;4919623;29;20052;-72
2022/07/09 05:04:50;;;;;;;0.40;0.40;;;;;;;23.69;51.97;101268.44;4931088;29;20059;-71
2022/07/09 05:07:20;;;;;;;0.82;0.50;;;;;;;23.61;51.48;101266.78;4925497;29;20052;-71
2022/07/09 05:09:49;;;;;;;0.65;0.57;;;;;;;23.53;51.61;101273.97;4929588;29;20119;-72
2022/07/09 05:12:17;;;;;;;0.50;0.40;;;;;;;23.47;52.91;101279.34;4941631;29;20050;-72
2022/07/09 05:14:46;;;;;;;0.65;0.55;;;;;;;23.40;52.75;101275.91;4935286;29;20549;-73
2022/07/09 05:17:15;;;;;;;0.90;0.77;;;;;;;23.35;53.81;101279.53;4938007;29;20103;-73
2022/07/09 05:19:43;;;;;;;1.50;1.10;;;;;;;23.21;53.12;101267.41;4930970;29;20075;-70
2022/07/09 05:22:12;;;;;;;2.25;1.02;;;;;;;23.20;53.56;101281.53;4935813;29;20047;-72
2022/07/09 05:24:42;;;;;;;1.55;0.80;;;;;;;23.14;52.60;101284.25;4937747;29;20052;-72
2022/07/09 05:27:11;;;;;;;1.08;0.50;;;;;;;23.06;52.53;101291.38;4931646;29;20051;-73
2022/07/09 05:29:39;;;;;;;1.20;0.52;;;;;;;22.99;53.54;101287.94;4931692;29;20047;-72
2022/07/09 05:32:09;;;;;;;1.20;0.65;;;;;;;22.95;54.61;101290.63;4929093;29;20048;-73
2022/07/09 05:34:37;;;;;;;0.80;0.50;;;;;;;22.89;54.68;101288.06;4938067;29;20056;-73
2022/07/09 05:37:06;;;;;;;1.00;0.70;;;;;;;22.85;54.84;101283.72;4929176;29;20049;-72
2022/07/09 05:39:35;;;;;;;1.00;0.50;;;;;;;22.83;54.11;101285.50;4930819;29;20056;-71
2022/07/09 05:42:06;;;;;;;0.75;0.63;;;;;;;22.79;54.46;101290.84;4929399;29;20043;-73
2022/07/09 05:44:34;;;;;;;0.98;0.52;;;;;;;22.77;54.03;101286.47;4931711;29;20043;-72
2022/07/09 05:47:03;;;;;;;2.13;0.68;;;;;;;22.71;54.80;101281.25;4931314;29;20047;-77
2022/07/09 05:49:32;;;;;;;1.25;0.50;;;;;;;22.65;54.00;101274.28;4931172;29;20047;-79
2022/07/09 05:52:00;;;;;;;1.15;0.60;;;;;;;22.60;53.58;101276.13;4925367;29;20048;-73
2022/07/09 05:54:29;;;;;;;2.25;0.50;;;;;;;22.54;54.48;101279.72;4934701;28;20055;-73
2022/07/09 05:56:57;;;;;;;1.60;0.60;;;;;;;22.50;54.92;101282.41;4923236;29;20136;-72
2022/07/09 05:59:28;;;;;;;2.03;1.27;;;;;;;22.44;55.44;101287.72;4933632;29;20048;-73
2022/07/09 06:01:56;;;;;;;0.77;0.40;;;;;;;22.34;56.92;101284.34;4927403;29;20082;-72
2022/07/09 06:04:26;;;;;;;1.17;0.50;;;;;;;22.24;55.86;101285.31;4930271;29;20446;-74
2022/07/09 06:06:54;;;;;;;0.50;0.40;;;;;;;22.16;55.81;101282.72;4925964;29;20055;-73
2022/07/09 06:09:23;;;;;;;0.70;0.50;;;;;;;22.10;56.72;101285.41;4929284;29;20063;-71
2022/07/09 06:11:51;;;;;;;0.70;0.50;;;;;;;22.05;56.60;101289.84;4923573;29;20667;-74
2022/07/09 06:14:20;;;;;;;0.50;0.32;;;;;;;21.95;56.12;101276.78;4923012;29;20115;-72
2022/07/09 06:16:50;;;;;;;0.80;0.65;;;;;;;21.99;56.97;101284.63;4919344;29;20661;-71
2022/07/09 06:19:19;;;;;;;1.05;0.40;;;;;;;21.89;55.84;101284.72;4928665;29;20104;-73
2022/07/09 06:21:47;;;;;;;0.70;0.40;;;;;;;21.82;56.30;101283.03;4929546;29;20100;-72
2022/07/09 06:24:16;;;;;;;0.60;0.50;;;;;;;21.68;55.40;101275.25;4942827;29;20048;-74
2022/07/09 06:26:46;;;;;;;1.63;0.50;;;;;;;21.70;56.77;101277.88;4931094;29;20055;-72
2022/07/09 06:29:15;;;;;;;2.85;0.60;;;;;;;21.64;56.51;101285.81;4930761;29;20068;-74
2022/07/09 06:31:44;;;;;;;0.55;0.47;;;;;;;21.60;55.72;101287.63;4930786;29;20044;-72
2022/07/09 06:34:14;;;;;;;1.10;0.32;;;;;;;21.57;56.01;101295.50;4930114;29;20061;-71
2022/07/09 06:36:44;;;;;;;1.27;0.45;;;;;;;21.52;56.06;101285.03;4932035;29;20047;-72
2022/07/09 06:42:06;;;;;;;1.13;0.60;;;;;;;21.47;57.28;101289.44;4930534;29;20063;-74
2022/07/09 06:44:34;;;;;;;1.27;0.70;;;;;;;21.43;57.22;101292.13;4931174;29;20494;-72
2022/07/09 06:47:03;;;;;;;3.38;0.60;;;;;;;21.39;55.67;101288.59;4928762;29;20051;-71
2022/07/09 06:49:34;;;;;;;1.88;0.77;;;;;;;21.38;55.88;101293.88;4922874;29;20047;-73
2022/07/09 06:52:03;;;;;;;1.10;0.50;;;;;;;21.36;56.24;101287.75;4928728;29;20074;-70
2022/07/09 06:54:31;;;;;;;2.15;0.55;;;;;;;21.32;55.36;101286.88;4923059;28;20217;-72
2022/07/09 06:57:00;;;;;;;0.43;0.35;;;;;;;21.29;55.88;101294.81;4928437;29;20066;-74
2022/07/09 06:59:28;;;;;;;0.88;0.50;;;;;;;21.26;55.92;101294.84;4929600;29;20044;-72
2022/07/09 07:01:57;;;;;;;0.60;0.30;;;;;;;21.22;56.46;101295.72;4929964;29;20062;-71
2022/07/09 07:04:26;;;;;;;0.57;0.40;;;;;;;21.15;56.21;101294.88;4935764;29;20491;-72
2022/07/09 07:06:56;;;;;;;0.60;0.30;;;;;;;21.10;57.28;101297.53;4928692;29;20093;-75
2022/07/09 07:09:25;;;;;;;0.60;0.38;;;;;;;21.06;56.58;101295.81;4932164;29;20051;-75
2022/07/09 07:11:53;;;;;;;0.40;0.40;;;;;;;21.02;56.72;101303.72;4934664;29;20076;-76
2022/07/09 07:14:22;;;;;;;0.70;0.47;;;;;;;20.96;55.80;101303.75;4932014;29;20549;-73
2022/07/09 07:16:50;;;;;;;0.52;0.40;;;;;;;20.91;55.93;101302.03;4932127;29;20514;-75
2022/07/09 07:19:20;;;;;;;1.13;0.40;;;;;;;20.89;57.22;101309.06;4929965;29;20519;-72
2022/07/09 07:21:49;;;;;;;1.48;0.50;;;;;;;20.83;57.46;101306.44;4930066;29;20060;-73
2022/07/09 07:24:19;;;;;;;1.92;0.40;;;;;;;20.79;57.36;101303.81;4930351;29;20047;-75
2022/07/09 07:26:48;;;;;;;2.55;0.40;;;;;;;20.74;56.68;101314.38;4929331;29;20044;-75
2022/07/09 07:29:16;;;;;;;0.50;0.35;;;;;;;20.69;57.21;101310.88;4930585;29;20047;-74
2022/07/09 07:31:46;;;;;;;2.25;0.60;;;;;;;20.63;58.60;101319.66;4927577;29;20100;-73
2022/07/09 07:34:15;;;;;;;1.80;0.60;;;;;;;20.58;57.62;101317.94;4927960;29;20044;-73
2022/07/09 07:36:44;;;;;;;0.60;0.50;;;;;;;20.56;58.02;101327.53;4924603;29;20052;-75
2022/07/09 07:39:12;;;;;;;1.13;0.50;;;;;;;20.46;61.24;101324.06;4929470;29;20172;-73
2022/07/09 07:41:42;;;;;;;1.73;0.80;;;;;;;20.35;59.14;101323.22;4927376;29;20092;-73
2022/07/09 07:44:11;;;;;;;1.05;0.40;;;;;;;20.32;59.69;101328.44;4930517;29;20047;-72
2022/07/09 07:46:39;;;;;;;1.25;0.60;;;;;;;20.27;62.47;101331.97;4928508;29;20052;-75
2022/07/09 07:49:08;;;;;;;0.73;0.40;;;;;;;20.17;60.73;101327.59;4927945;29;20063;-72
2022/07/09 07:51:36;;;;;;;0.88;0.40;;;;;;;20.16;61.93;101336.38;4929522;29;20043;-72
2022/07/09 07:54:12;;;;;;;0.90;0.52;;;;;;;20.17;61.47;101332.84;4928370;28;20590;-72
2022/07/09 07:56:42;;;;;;;0.88;0.57;;;;;;;20.17;61.70;101337.25;4931323;29;20082;-72
2022/07/09 07:59:11;;;;;;;1.10;0.40;;;;;;;20.14;61.28;101332.00;4929282;29;20664;-72
2022/07/09 08:01:39;;;;;;;1.17;0.32;;;;;;;20.12;61.35;101339.00;4934178;29;20051;-75
2022/07/09 08:04:08;;;;;;;1.35;0.45;;;;;;;20.04;61.20;101338.97;4933849;29;20044;-72
2022/07/09 08:06:36;;;;;;;0.82;0.50;;;;;;;20.01;61.67;101334.63;4933594;29;20059;-74
2022/07/09 08:09:05;;;;;;;1.60;0.63;;;;;;;20.00;61.45;101332.88;4931618;29;20075;-74
2022/07/09 08:11:34;;;;;;;1.17;0.63;;;;;;;20.00;62.30;101332.00;4934122;29;20047;-72
2022/07/09 08:14:05;;;;;;;0.57;0.40;;;;;;;20.00;63.78;101334.63;4929097;29;20059;-73
2022/07/09 08:16:33;;;;;;;1.98;0.60;;;;;;;19.97;63.41;101337.25;4926158;29;20055;-74
2022/07/09 08:19:02;;;;;;;1.35;0.50;;;;;;;19.95;63.24;101331.09;4923209;29;20047;-73
2022/07/09 08:21:30;;;;;;;0.52;0.40;;;;;;;19.91;62.47;101324.13;4932276;29;20067;-75
2022/07/09 08:24:00;;;;;;;0.85;0.60;;;;;;;19.88;62.11;101323.25;4939950;29;20047;-73
2022/07/09 08:26:29;;;;;;;1.08;0.63;;;;;;;19.86;62.03;101324.13;4932323;29;20126;-73
2022/07/09 08:28:58;;;;;;;1.63;0.70;;;;;;;19.85;62.18;101323.22;4931749;29;20138;-73
2022/07/09 08:31:28;;;;;;;0.63;0.50;;;;;;;19.82;63.04;101330.25;4932112;29;20521;-73
2022/07/09 08:33:57;;;;;;;2.08;0.50;;;;;;;19.77;65.43;101327.63;4928166;29;20479;-74
2022/07/09 08:36:25;;;;;;;2.05;0.60;;;;;;;19.74;64.46;101332.84;4933619;29;20486;-73
2022/07/09 08:38:54;;;;;;;0.77;0.50;;;;;;;19.69;64.84;101333.72;4933747;29;20115;-73
2022/07/09 08:41:25;;;;;;;0.88;0.60;;;;;;;19.58;64.80;101331.06;4927411;29;20106;-73
2022/07/09 08:43:54;;;;;;;2.55;0.60;;;;;;;19.53;64.37;101323.16;4926484;29;20474;-73
2022/07/09 08:46:23;;;;;;;3.58;0.50;;;;;;;19.50;63.91;101338.91;4934068;29;20051;-73
2022/07/09 08:48:56;;;;;;;1.90;0.60;;;;;;;19.49;63.72;101337.16;4932372;29;20047;-74
2022/07/09 08:51:25;;;;;;;;;;;;;;;19.48;63.40;101334.53;4932957;29;20281;-73
2022/07/09 08:53:56;;;;;;;0.80;0.57;;;;;;;19.46;62.85;101338.03;4933118;28;19923;-73
2022/07/09 08:56:24;;;;;;;0.70;0.50;;;;;;;19.43;63.70;101332.78;4936192;29;20070;-73
2022/07/09 08:58:53;;;;;;;1.63;0.40;;;;;;;19.40;63.25;101339.75;4929659;29;20570;-73
2022/07/09 09:01:21;;;;;;;0.80;0.43;;;;;;;19.37;63.48;101338.00;4930659;29;20570;-73
2022/07/09 09:03:50;;;;;;;1.23;0.60;;;;;;;19.31;63.77;101338.00;4938197;29;20395;-73
2022/07/09 09:06:23;;;;;;;1.33;0.60;;;;;;;19.25;64.61;101335.34;4936253;29;20489;-72
2022/07/09 09:08:55;;;;;;;2.33;0.68;;;;;;;19.21;64.55;101338.84;4931495;29;20048;-73
2022/07/09 09:11:26;;;;;;;0.82;0.50;;;;;;;19.19;67.00;101340.56;4932311;29;20081;-73
2022/07/09 09:13:55;;;;;;;0.82;0.50;;;;;;;19.12;65.65;101341.44;4929779;29;20059;-72
2022/07/09 09:16:23;;;;;;;1.17;0.70;;;;;;;19.07;65.20;101337.91;4928377;29;20138;-73
2022/07/09 09:18:53;;;;;;;1.77;0.50;;;;;;;19.06;64.25;101337.06;4929540;29;20224;-73
2022/07/09 09:21:25;;;;;;;1.55;0.65;;;;;;;19.05;65.30;101340.53;4927581;29;20494;-73
2022/07/09 09:23:54;;;;;;;0.60;0.60;;;;;;;19.03;65.95;101340.53;4938601;29;20051;-73
2022/07/09 09:26:24;;;;;;;1.95;0.55;;;;;;;19.04;68.44;101336.16;4932410;29;20047;-73
2022/07/09 09:28:54;;;;;;;1.40;0.70;;;;;;;19.03;67.58;101342.25;4927788;29;20048;-72
2022/07/09 09:31:24;;;;;;;1.13;0.60;;;;;;;19.01;65.88;101339.66;4933077;29;20047;-72
2022/07/09 09:33:53;;;;;;;1.55;0.43;;;;;;;19.01;64.46;101349.25;4923134;29;20088;-72
2022/07/09 09:36:34;;;;;;;0.55;0.40;;;;;;;18.99;63.23;101349.25;4927437;29;20055;-73
2022/07/09 09:39:16;;;;;;;0.50;0.40;;;;;;;18.97;63.53;101353.63;4929009;29;20056;-73
2022/07/09 09:41:46;;;;;;;0.75;0.45;;;;;;;18.95;63.58;101350.09;4929264;29;20118;-73
2022/07/09 09:44:16;;;;;;;1.13;0.40;;;;;;;18.93;62.80;101353.59;4924201;29;20048;-73
2022/07/09 09:46:45;;;;;;;0.80;0.43;;;;;;;18.92;62.95;101357.97;4932316;29;20232;-74
2022/07/09 09:49:15;;;;;;;0.88;0.57;;;;;;;18.88;64.00;101350.97;4926678;29;20552;-73
2022/07/09 09:51:58;;;;;;;0.85;0.47;;;;;;;18.81;62.66;101351.81;4926485;29;20047;-73
2022/07/09 09:54:27;;;;;;;0.77;0.60;;;;;;;18.75;64.58;101351.72;4927804;28;20580;-73
2022/07/09 09:56:56;;;;;;;1.10;0.57;;;;;;;18.71;64.85;101363.06;4931212;29;20051;-73
2022/07/09 09:59:25;;;;;;;1.10;0.50;;;;;;;18.67;64.34;101351.69;4930059;29;20072;-71
2022/07/09 10:01:54;;;;;;;4.35;0.70;;;;;;;18.61;63.18;101355.13;4931644;29;20047;-73
2022/07/09 10:04:23;;;;;;;0.43;0.40;;;;;;;18.56;63.10;101346.38;4924198;29;20052;-74
2022/07/09 10:06:55;;;;;;;1.08;0.50;;;;;;;18.48;63.90;101348.06;4930193;29;20438;-74
2022/07/09 10:09:23;;;;;;;1.38;0.70;;;;;;;18.40;64.95;101355.00;4928836;29;20055;-73
2022/07/09 10:11:52;;;;;;;0.60;0.50;;;;;;;18.37;67.67;101349.72;4931065;29;20051;-73
2022/07/09 10:14:32;;;;;;;1.55;0.57;;;;;;;18.31;66.83;101349.72;4923407;29;20041;-72
2022/07/09 10:17:15;;;;;;;2.60;0.50;;;;;;;18.20;66.06;101347.88;4923715;29;20069;-73
2022/07/09 10:19:54;;;;;;;1.02;0.60;;;;;;;18.15;65.29;101348.72;4924190;29;20609;-73
2022/07/09 10:22:36;;;;;;;1.35;0.52;;;;;;;18.12;66.13;101349.56;4932642;29;20055;-72
2022/07/09 10:25:06;;;;;;;1.38;0.60;;;;;;;18.12;65.75;101348.66;4935000;29;20148;-73
2022/07/09 10:27:44;;;;;;;0.80;0.40;;;;;;;18.10;65.59;101350.44;4932394;29;20131;-73
2022/07/09 10:30:26;;;;;;;2.00;0.60;;;;;;;18.10;65.23;101347.81;4931567;29;20151;-73
2022/07/09 10:33:05;;;;;;;1.90;0.70;;;;;;;18.08;65.52;101345.16;4942942;29;20097;-72
2022/07/09 10:35:41;;;;;;;1.13;0.52;;;;;;;18.06;66.00;101349.50;4923538;29;20043;-72
2022/07/09 10:38:12;;;;;;;0.95;0.60;;;;;;;18.04;66.82;101347.75;4935615;29;20078;-72
2022/07/09 10:40:42;;;;;;;0.47;0.43;;;;;;;18.00;67.26;101350.34;4931694;29;20490;-72
2022/07/09 10:43:10;;;;;;;0.85;0.63;;;;;;;17.97;67.02;101354.69;4929715;29;20055;-73
2022/07/09 10:45:40;;;;;;;0.77;0.52;;;;;;;17.92;66.69;101359.88;4931406;29;20048;-73
2022/07/09 10:48:11;;;;;;;1.00;0.60;;;;;;;17.90;66.50;101356.34;4932535;29;20106;-72
2022/07/09 10:50:42;;;;;;;2.08;0.65;;;;;;;17.87;66.17;101353.72;4938564;29;20040;-73
2022/07/09 10:53:13;;;;;;;1.25;0.50;;;;;;;17.85;66.48;101359.81;4930274;29;20047;-72
2022/07/09 10:55:45;;;;;;;2.70;0.60;;;;;;;17.83;66.11;101345.81;4932283;28;20066;-72
2022/07/09 10:58:19;;;;;;;1.33;0.65;;;;;;;17.79;66.90;101350.09;4931040;29;20082;-72
2022/07/09 11:00:55;;;;;;;0.90;0.60;;;;;;;17.77;67.31;101349.22;4932564;29;20494;-72
2022/07/09 11:03:33;;;;;;;1.50;0.73;;;;;;;17.75;67.59;101356.19;4923708;29;20052;-73
2022/07/09 11:06:02;;;;;;;1.65;0.50;;;;;;;17.71;67.86;101352.66;4938558;29;20520;-73
2022/07/09 11:08:32;;;;;;;2.05;0.65;;;;;;;17.68;67.25;101357.84;4929718;29;20055;-74
2022/07/09 11:11:01;;;;;;;3.42;0.77;;;;;;;17.65;66.94;101362.19;4928175;29;20048;-73
2022/07/09 11:13:29;;;;;;;0.90;0.43;;;;;;;17.59;67.45;101360.38;4933877;29;20051;-73
2022/07/09 11:16:02;;;;;;;2.30;0.70;;;;;;;17.57;67.71;101360.38;4938559;29;20070;-74
2022/07/09 11:18:31;;;;;;;1.08;0.60;;;;;;;17.55;67.64;101361.22;4935982;29;20150;-72
2022/07/09 11:20:59;;;;;;;0.77;0.50;;;;;;;17.54;68.91;101364.69;4925445;29;20055;-73
2022/07/09 11:23:28;;;;;;;0.75;0.57;;;;;;;17.51;70.72;101364.66;4934328;29;20116;-73
2022/07/09 11:25:58;;;;;;;1.73;0.50;;;;;;;17.51;69.99;101364.66;4940130;29;20108;-73
2022/07/09 11:28:27;;;;;;;1.52;0.60;;;;;;;17.48;68.02;101364.66;4930609;29;20055;-74
2022/07/09 11:31:03;;;;;;;1.15;0.60;;;;;;;17.44;67.94;101368.09;4934336;29;20139;-72
2022/07/09 11:36:14;;;;;;;0.80;0.68;;;;;;;17.38;68.23;101367.16;4932950;29;20525;-74
2022/07/09 11:38:49;;;;;;;1.77;0.55;;;;;;;17.36;68.23;101366.25;4938018;29;20751;-74
2022/07/09 11:41:20;;;;;;;0.50;0.45;;;;;;;17.34;68.36;101372.31;4932379;29;20134;-73